sensor_id;sensor_type;location;lat;lon;timestamp;P1;durP1;ratioP1;P2;durP2;ratioP2
69837;SDS011;57135;51.992;4.476;2023-04-03T00:02:05;2.63;;;2.56;;
69837;SDS011;57135;51.992;4.476;2023-04-03T00:04:30;2.76;;;2.68;;
69837;SDS011;57135;51.992;4.476;2023-04-03T00:06:56;2.74;;;2.68;;
69837;SDS011;57135;51.992;4.476;2023-04-03T00:09:22;2.71;;;2.66;;
69837;SDS011;57135;51.992;4.476;2023-04-03T00:11:47;2.94;;;2.88;;
69837;SDS011;57135;51.992;4.476;2023-04-03T00:14:13;2.82;;;2.76;;
69837;SDS011;57135;51.992;4.476;2023-04-03T00:16:38;2.53;;;2.48;;
69837;SDS011;57135;51.992;4.476;2023-04-03T00:19:04;2.64;;;2.59;;
69837;SDS011;57135;51.992;4.476;2023-04-03T00:21:29;2.64;;;2.57;;
69837;SDS011;57135;51.992;4.476;2023-04-03T00:23:55;2.80;;;2.71;;
69837;SDS011;57135;51.992;4.476;2023-04-03T00:26:21;2.86;;;2.77;;
69837;SDS011;57135;51.992;4.476;2023-04-03T00:28:46;2.88;;;2.78;;
69837;SDS011;57135;51.992;4.476;2023-04-03T00:31:13;2.82;;;2.75;;
69837;SDS011;57135;51.992;4.476;2023-04-03T00:33:41;2.64;;;2.59;;
69837;SDS011;57135;51.992;4.476;2023-04-03T00:36:07;2.88;;;2.84;;
69837;SDS011;57135;51.992;4.476;2023-04-03T00:38:35;2.83;;;2.80;;
69837;SDS011;57135;51.992;4.476;2023-04-03T00:41:00;2.82;;;2.80;;
69837;SDS011;57135;51.992;4.476;2023-04-03T00:43:26;3.30;;;3.25;;
69837;SDS011;57135;51.992;4.476;2023-04-03T00:45:56;2.94;;;2.88;;
69837;SDS011;57135;51.992;4.476;2023-04-03T00:48:26;2.94;;;2.89;;
69837;SDS011;57135;51.992;4.476;2023-04-03T00:51:06;3.06;;;3.04;;
69837;SDS011;57135;51.992;4.476;2023-04-03T00:53:46;3.01;;;2.99;;
69837;SDS011;57135;51.992;4.476;2023-04-03T00:56:18;2.88;;;2.84;;
69837;SDS011;57135;51.992;4.476;2023-04-03T00:58:51;2.80;;;2.75;;
69837;SDS011;57135;51.992;4.476;2023-04-03T01:01:23;3.10;;;3.06;;
69837;SDS011;57135;51.992;4.476;2023-04-03T01:03:50;2.90;;;2.87;;
69837;SDS011;57135;51.992;4.476;2023-04-03T01:06:16;2.76;;;2.74;;
69837;SDS011;57135;51.992;4.476;2023-04-03T01:08:47;2.86;;;2.84;;
69837;SDS011;57135;51.992;4.476;2023-04-03T01:11:14;3.01;;;2.98;;
69837;SDS011;57135;51.992;4.476;2023-04-03T01:13:40;2.72;;;2.70;;
69837;SDS011;57135;51.992;4.476;2023-04-03T01:16:05;2.90;;;2.88;;
69837;SDS011;57135;51.992;4.476;2023-04-03T01:18:32;2.74;;;2.71;;
69837;SDS011;57135;51.992;4.476;2023-04-03T01:21:07;2.71;;;2.69;;
69837;SDS011;57135;51.992;4.476;2023-04-03T01:24:04;3.03;;;3.01;;
69837;SDS011;57135;51.992;4.476;2023-04-03T01:26:55;2.98;;;2.97;;
69837;SDS011;57135;51.992;4.476;2023-04-03T01:29:21;2.95;;;2.91;;
69837;SDS011;57135;51.992;4.476;2023-04-03T01:31:53;3.04;;;3.00;;
69837;SDS011;57135;51.992;4.476;2023-04-03T01:34:21;2.71;;;2.68;;
69837;SDS011;57135;51.992;4.476;2023-04-03T01:36:48;2.96;;;2.92;;
69837;SDS011;57135;51.992;4.476;2023-04-03T01:39:15;2.86;;;2.82;;
69837;SDS011;57135;51.992;4.476;2023-04-03T01:41:41;2.86;;;2.82;;
69837;SDS011;57135;51.992;4.476;2023-04-03T01:44:06;3.01;;;2.96;;
69837;SDS011;57135;51.992;4.476;2023-04-03T01:46:32;2.95;;;2.89;;
69837;SDS011;57135;51.992;4.476;2023-04-03T01:48:57;2.96;;;2.89;;
69837;SDS011;57135;51.992;4.476;2023-04-03T01:51:22;3.01;;;2.97;;
69837;SDS011;57135;51.992;4.476;2023-04-03T01:53:48;2.94;;;2.91;;
69837;SDS011;57135;51.992;4.476;2023-04-03T01:56:14;3.07;;;3.02;;
69837;SDS011;57135;51.992;4.476;2023-04-03T01:58:39;2.83;;;2.77;;
69837;SDS011;57135;51.992;4.476;2023-04-03T02:01:05;2.85;;;2.81;;
69837;SDS011;57135;51.992;4.476;2023-04-03T02:03:31;2.99;;;2.97;;
69837;SDS011;57135;51.992;4.476;2023-04-03T02:05:56;3.14;;;3.12;;
69837;SDS011;57135;51.992;4.476;2023-04-03T02:08:22;2.84;;;2.80;;
69837;SDS011;57135;51.992;4.476;2023-04-03T02:10:48;3.06;;;3.02;;
69837;SDS011;57135;51.992;4.476;2023-04-03T02:13:15;2.90;;;2.88;;
69837;SDS011;57135;51.992;4.476;2023-04-03T02:15:41;3.05;;;3.03;;
69837;SDS011;57135;51.992;4.476;2023-04-03T02:18:06;2.84;;;2.82;;
69837;SDS011;57135;51.992;4.476;2023-04-03T02:20:32;2.89;;;2.88;;
69837;SDS011;57135;51.992;4.476;2023-04-03T02:22:58;3.15;;;3.12;;
69837;SDS011;57135;51.992;4.476;2023-04-03T02:25:24;3.20;;;3.18;;
69837;SDS011;57135;51.992;4.476;2023-04-03T02:27:49;3.13;;;3.10;;
69837;SDS011;57135;51.992;4.476;2023-04-03T02:30:15;3.15;;;3.10;;
69837;SDS011;57135;51.992;4.476;2023-04-03T02:32:41;3.17;;;3.12;;
69837;SDS011;57135;51.992;4.476;2023-04-03T02:35:07;3.00;;;2.97;;
69837;SDS011;57135;51.992;4.476;2023-04-03T02:37:33;3.21;;;3.16;;
69837;SDS011;57135;51.992;4.476;2023-04-03T02:39:59;3.29;;;3.22;;
69837;SDS011;57135;51.992;4.476;2023-04-03T02:42:25;3.26;;;3.18;;
69837;SDS011;57135;51.992;4.476;2023-04-03T02:44:51;3.22;;;3.17;;
69837;SDS011;57135;51.992;4.476;2023-04-03T02:47:16;2.98;;;2.94;;
69837;SDS011;57135;51.992;4.476;2023-04-03T02:49:42;3.15;;;3.11;;
69837;SDS011;57135;51.992;4.476;2023-04-03T02:52:10;3.08;;;3.06;;
69837;SDS011;57135;51.992;4.476;2023-04-03T02:54:35;3.32;;;3.29;;
69837;SDS011;57135;51.992;4.476;2023-04-03T02:57:01;3.54;;;3.49;;
69837;SDS011;57135;51.992;4.476;2023-04-03T02:59:26;3.31;;;3.29;;
69837;SDS011;57135;51.992;4.476;2023-04-03T03:01:52;3.18;;;3.13;;
69837;SDS011;57135;51.992;4.476;2023-04-03T03:04:17;3.40;;;3.37;;
69837;SDS011;57135;51.992;4.476;2023-04-03T03:06:43;3.20;;;3.20;;
69837;SDS011;57135;51.992;4.476;2023-04-03T03:09:09;3.42;;;3.40;;
69837;SDS011;57135;51.992;4.476;2023-04-03T03:11:34;3.42;;;3.38;;
69837;SDS011;57135;51.992;4.476;2023-04-03T03:14:00;3.67;;;3.62;;
69837;SDS011;57135;51.992;4.476;2023-04-03T03:16:25;3.44;;;3.38;;
69837;SDS011;57135;51.992;4.476;2023-04-03T03:18:51;3.42;;;3.37;;
69837;SDS011;57135;51.992;4.476;2023-04-03T03:21:16;3.59;;;3.54;;
69837;SDS011;57135;51.992;4.476;2023-04-03T03:23:42;3.56;;;3.47;;
69837;SDS011;57135;51.992;4.476;2023-04-03T03:26:08;3.25;;;3.17;;
69837;SDS011;57135;51.992;4.476;2023-04-03T03:28:35;3.48;;;3.43;;
69837;SDS011;57135;51.992;4.476;2023-04-03T03:31:01;3.52;;;3.45;;
69837;SDS011;57135;51.992;4.476;2023-04-03T03:33:27;3.64;;;3.57;;
69837;SDS011;57135;51.992;4.476;2023-04-03T03:35:53;3.33;;;3.29;;
69837;SDS011;57135;51.992;4.476;2023-04-03T03:38:19;3.33;;;3.29;;
69837;SDS011;57135;51.992;4.476;2023-04-03T03:40:46;3.74;;;3.68;;
69837;SDS011;57135;51.992;4.476;2023-04-03T03:43:13;4.36;;;4.29;;
69837;SDS011;57135;51.992;4.476;2023-04-03T03:45:39;3.85;;;3.79;;
69837;SDS011;57135;51.992;4.476;2023-04-03T03:48:05;3.72;;;3.67;;
69837;SDS011;57135;51.992;4.476;2023-04-03T03:50:30;3.60;;;3.59;;
69837;SDS011;57135;51.992;4.476;2023-04-03T03:52:56;3.71;;;3.70;;
69837;SDS011;57135;51.992;4.476;2023-04-03T03:55:21;3.76;;;3.74;;
69837;SDS011;57135;51.992;4.476;2023-04-03T03:57:46;3.86;;;3.84;;
69837;SDS011;57135;51.992;4.476;2023-04-03T04:00:12;3.79;;;3.76;;
69837;SDS011;57135;51.992;4.476;2023-04-03T04:02:38;3.69;;;3.66;;
69837;SDS011;57135;51.992;4.476;2023-04-03T04:05:03;3.87;;;3.82;;
69837;SDS011;57135;51.992;4.476;2023-04-03T04:07:29;4.14;;;4.09;;
69837;SDS011;57135;51.992;4.476;2023-04-03T04:09:54;4.24;;;4.20;;
69837;SDS011;57135;51.992;4.476;2023-04-03T04:12:20;3.94;;;3.89;;
69837;SDS011;57135;51.992;4.476;2023-04-03T04:14:46;3.91;;;3.86;;
69837;SDS011;57135;51.992;4.476;2023-04-03T04:17:12;4.17;;;4.11;;
69837;SDS011;57135;51.992;4.476;2023-04-03T04:19:38;3.84;;;3.79;;
69837;SDS011;57135;51.992;4.476;2023-04-03T04:22:03;3.96;;;3.87;;
69837;SDS011;57135;51.992;4.476;2023-04-03T04:24:29;4.20;;;4.15;;
69837;SDS011;57135;51.992;4.476;2023-04-03T04:26:55;4.06;;;3.97;;
69837;SDS011;57135;51.992;4.476;2023-04-03T04:29:20;4.08;;;4.04;;
69837;SDS011;57135;51.992;4.476;2023-04-03T04:31:46;3.67;;;3.63;;
69837;SDS011;57135;51.992;4.476;2023-04-03T04:34:11;3.93;;;3.88;;
69837;SDS011;57135;51.992;4.476;2023-04-03T04:36:38;3.97;;;3.91;;
69837;SDS011;57135;51.992;4.476;2023-04-03T04:39:04;3.77;;;3.72;;
69837;SDS011;57135;51.992;4.476;2023-04-03T04:41:30;4.00;;;3.97;;
69837;SDS011;57135;51.992;4.476;2023-04-03T04:43:56;4.27;;;4.24;;
69837;SDS011;57135;51.992;4.476;2023-04-03T04:46:21;3.93;;;3.90;;
69837;SDS011;57135;51.992;4.476;2023-04-03T04:48:47;3.86;;;3.82;;
69837;SDS011;57135;51.992;4.476;2023-04-03T04:51:13;3.82;;;3.76;;
69837;SDS011;57135;51.992;4.476;2023-04-03T04:53:40;4.09;;;4.01;;
69837;SDS011;57135;51.992;4.476;2023-04-03T04:56:06;3.98;;;3.92;;
69837;SDS011;57135;51.992;4.476;2023-04-03T04:58:31;4.16;;;4.12;;
69837;SDS011;57135;51.992;4.476;2023-04-03T05:01:00;4.01;;;4.01;;
69837;SDS011;57135;51.992;4.476;2023-04-03T05:03:26;4.19;;;4.16;;
69837;SDS011;57135;51.992;4.476;2023-04-03T05:05:52;4.07;;;4.03;;
69837;SDS011;57135;51.992;4.476;2023-04-03T05:08:17;3.94;;;3.93;;
69837;SDS011;57135;51.992;4.476;2023-04-03T05:10:44;4.01;;;4.00;;
69837;SDS011;57135;51.992;4.476;2023-04-03T05:13:10;4.01;;;3.96;;
69837;SDS011;57135;51.992;4.476;2023-04-03T05:15:35;4.08;;;4.06;;
69837;SDS011;57135;51.992;4.476;2023-04-03T05:18:01;4.35;;;4.35;;
69837;SDS011;57135;51.992;4.476;2023-04-03T05:20:26;4.33;;;4.29;;
69837;SDS011;57135;51.992;4.476;2023-04-03T05:22:52;4.28;;;4.25;;
69837;SDS011;57135;51.992;4.476;2023-04-03T05:25:17;4.30;;;4.27;;
69837;SDS011;57135;51.992;4.476;2023-04-03T05:27:43;4.64;;;4.60;;
69837;SDS011;57135;51.992;4.476;2023-04-03T05:30:08;4.74;;;4.70;;
69837;SDS011;57135;51.992;4.476;2023-04-03T05:32:35;4.33;;;4.31;;
69837;SDS011;57135;51.992;4.476;2023-04-03T05:35:00;4.66;;;4.60;;
69837;SDS011;57135;51.992;4.476;2023-04-03T05:37:25;4.61;;;4.56;;
69837;SDS011;57135;51.992;4.476;2023-04-03T05:39:51;4.77;;;4.77;;
69837;SDS011;57135;51.992;4.476;2023-04-03T05:42:16;5.19;;;5.15;;
69837;SDS011;57135;51.992;4.476;2023-04-03T05:44:42;4.97;;;4.94;;
69837;SDS011;57135;51.992;4.476;2023-04-03T05:47:07;4.91;;;4.86;;
69837;SDS011;57135;51.992;4.476;2023-04-03T05:49:33;4.88;;;4.82;;
69837;SDS011;57135;51.992;4.476;2023-04-03T05:51:59;4.96;;;4.89;;
69837;SDS011;57135;51.992;4.476;2023-04-03T05:54:27;4.52;;;4.48;;
69837;SDS011;57135;51.992;4.476;2023-04-03T05:56:54;4.64;;;4.63;;
69837;SDS011;57135;51.992;4.476;2023-04-03T05:59:19;4.92;;;4.90;;
69837;SDS011;57135;51.992;4.476;2023-04-03T06:01:45;4.99;;;4.92;;
69837;SDS011;57135;51.992;4.476;2023-04-03T06:04:11;5.14;;;5.10;;
69837;SDS011;57135;51.992;4.476;2023-04-03T06:09:20;5.13;;;5.12;;
69837;SDS011;57135;51.992;4.476;2023-04-03T06:11:47;5.47;;;5.45;;
69837;SDS011;57135;51.992;4.476;2023-04-03T06:14:12;5.16;;;5.12;;
69837;SDS011;57135;51.992;4.476;2023-04-03T06:16:38;5.47;;;5.46;;
69837;SDS011;57135;51.992;4.476;2023-04-03T06:19:04;5.61;;;5.59;;
69837;SDS011;57135;51.992;4.476;2023-04-03T06:21:31;5.36;;;5.32;;
69837;SDS011;57135;51.992;4.476;2023-04-03T06:23:57;5.43;;;5.42;;
69837;SDS011;57135;51.992;4.476;2023-04-03T06:26:22;4.90;;;4.88;;
69837;SDS011;57135;51.992;4.476;2023-04-03T06:28:48;5.15;;;5.12;;
69837;SDS011;57135;51.992;4.476;2023-04-03T06:31:13;5.54;;;5.50;;
69837;SDS011;57135;51.992;4.476;2023-04-03T06:33:39;5.79;;;5.78;;
69837;SDS011;57135;51.992;4.476;2023-04-03T06:36:05;5.19;;;5.15;;
69837;SDS011;57135;51.992;4.476;2023-04-03T06:38:32;4.93;;;4.90;;
69837;SDS011;57135;51.992;4.476;2023-04-03T06:40:58;4.76;;;4.69;;
69837;SDS011;57135;51.992;4.476;2023-04-03T06:43:23;5.56;;;5.39;;
69837;SDS011;57135;51.992;4.476;2023-04-03T06:45:49;4.75;;;4.67;;
69837;SDS011;57135;51.992;4.476;2023-04-03T06:48:15;4.60;;;4.48;;
69837;SDS011;57135;51.992;4.476;2023-04-03T06:50:41;4.56;;;4.48;;
69837;SDS011;57135;51.992;4.476;2023-04-03T06:53:07;4.44;;;4.36;;
69837;SDS011;57135;51.992;4.476;2023-04-03T06:55:33;4.64;;;4.56;;
69837;SDS011;57135;51.992;4.476;2023-04-03T06:57:59;4.51;;;4.42;;
69837;SDS011;57135;51.992;4.476;2023-04-03T07:00:25;4.36;;;4.33;;
69837;SDS011;57135;51.992;4.476;2023-04-03T07:02:51;4.19;;;4.12;;
69837;SDS011;57135;51.992;4.476;2023-04-03T07:05:17;4.16;;;4.06;;
69837;SDS011;57135;51.992;4.476;2023-04-03T07:07:43;3.91;;;3.84;;
69837;SDS011;57135;51.992;4.476;2023-04-03T07:10:08;4.14;;;4.02;;
69837;SDS011;57135;51.992;4.476;2023-04-03T07:12:35;4.20;;;4.10;;
69837;SDS011;57135;51.992;4.476;2023-04-03T07:15:00;5.13;;;4.76;;
69837;SDS011;57135;51.992;4.476;2023-04-03T07:17:26;5.06;;;4.67;;
69837;SDS011;57135;51.992;4.476;2023-04-03T07:19:51;4.47;;;4.26;;
69837;SDS011;57135;51.992;4.476;2023-04-03T07:22:17;3.99;;;3.89;;
69837;SDS011;57135;51.992;4.476;2023-04-03T07:24:43;3.83;;;3.75;;
69837;SDS011;57135;51.992;4.476;2023-04-03T07:27:09;4.15;;;4.02;;
69837;SDS011;57135;51.992;4.476;2023-04-03T07:29:35;3.92;;;3.83;;
69837;SDS011;57135;51.992;4.476;2023-04-03T07:32:01;4.04;;;3.93;;
69837;SDS011;57135;51.992;4.476;2023-04-03T07:34:27;3.95;;;3.84;;
69837;SDS011;57135;51.992;4.476;2023-04-03T07:36:52;5.80;;;5.26;;
69837;SDS011;57135;51.992;4.476;2023-04-03T07:39:18;8.49;;;6.78;;
69837;SDS011;57135;51.992;4.476;2023-04-03T07:41:43;6.33;;;5.17;;
69837;SDS011;57135;51.992;4.476;2023-04-03T07:44:09;4.78;;;4.32;;
69837;SDS011;57135;51.992;4.476;2023-04-03T07:46:35;4.28;;;4.05;;
69837;SDS011;57135;51.992;4.476;2023-04-03T07:49:01;4.37;;;4.16;;
69837;SDS011;57135;51.992;4.476;2023-04-03T07:51:27;4.25;;;4.06;;
69837;SDS011;57135;51.992;4.476;2023-04-03T07:53:54;4.31;;;4.10;;
69837;SDS011;57135;51.992;4.476;2023-04-03T07:56:20;3.98;;;3.80;;
69837;SDS011;57135;51.992;4.476;2023-04-03T07:58:46;3.82;;;3.68;;
69837;SDS011;57135;51.992;4.476;2023-04-03T08:01:12;4.06;;;3.88;;
69837;SDS011;57135;51.992;4.476;2023-04-03T08:03:38;3.93;;;3.65;;
69837;SDS011;57135;51.992;4.476;2023-04-03T08:06:05;4.07;;;3.77;;
69837;SDS011;57135;51.992;4.476;2023-04-03T08:08:32;3.86;;;3.63;;
69837;SDS011;57135;51.992;4.476;2023-04-03T08:10:58;3.84;;;3.62;;
69837;SDS011;57135;51.992;4.476;2023-04-03T08:13:26;3.69;;;3.54;;
69837;SDS011;57135;51.992;4.476;2023-04-03T08:15:52;3.85;;;3.70;;
69837;SDS011;57135;51.992;4.476;2023-04-03T08:18:17;13.34;;;10.13;;
69837;SDS011;57135;51.992;4.476;2023-04-03T08:20:46;19.17;;;12.72;;
69837;SDS011;57135;51.992;4.476;2023-04-03T08:23:12;6.59;;;4.78;;
69837;SDS011;57135;51.992;4.476;2023-04-03T08:25:42;5.53;;;4.42;;
69837;SDS011;57135;51.992;4.476;2023-04-03T08:28:08;4.61;;;3.96;;
69837;SDS011;57135;51.992;4.476;2023-04-03T08:30:38;3.97;;;3.63;;
69837;SDS011;57135;51.992;4.476;2023-04-03T08:33:05;3.40;;;3.20;;
69837;SDS011;57135;51.992;4.476;2023-04-03T08:35:31;3.60;;;3.40;;
69837;SDS011;57135;51.992;4.476;2023-04-03T08:37:56;3.62;;;3.45;;
69837;SDS011;57135;51.992;4.476;2023-04-03T08:40:22;3.83;;;3.66;;
69837;SDS011;57135;51.992;4.476;2023-04-03T08:43:14;3.69;;;3.44;;
69837;SDS011;57135;51.992;4.476;2023-04-03T08:45:55;3.78;;;3.48;;
69837;SDS011;57135;51.992;4.476;2023-04-03T08:48:23;3.48;;;3.33;;
69837;SDS011;57135;51.992;4.476;2023-04-03T08:50:56;3.42;;;3.25;;
69837;SDS011;57135;51.992;4.476;2023-04-03T08:53:28;3.58;;;3.38;;
69837;SDS011;57135;51.992;4.476;2023-04-03T08:55:58;3.29;;;3.09;;
69837;SDS011;57135;51.992;4.476;2023-04-03T08:58:24;3.53;;;3.30;;
69837;SDS011;57135;51.992;4.476;2023-04-03T09:03:53;3.11;;;2.99;;
69837;SDS011;57135;51.992;4.476;2023-04-03T09:06:20;2.79;;;2.66;;
69837;SDS011;57135;51.992;4.476;2023-04-03T09:11:41;2.51;;;2.40;;
69837;SDS011;57135;51.992;4.476;2023-04-03T09:17:13;2.62;;;2.54;;
69837;SDS011;57135;51.992;4.476;2023-04-03T09:22:22;2.65;;;2.48;;
69837;SDS011;57135;51.992;4.476;2023-04-03T09:25:14;2.66;;;2.48;;
69837;SDS011;57135;51.992;4.476;2023-04-03T09:27:41;2.40;;;2.26;;
69837;SDS011;57135;51.992;4.476;2023-04-03T09:30:15;2.04;;;1.94;;
69837;SDS011;57135;51.992;4.476;2023-04-03T09:32:43;2.63;;;2.43;;
69837;SDS011;57135;51.992;4.476;2023-04-03T09:35:30;2.33;;;2.14;;
69837;SDS011;57135;51.992;4.476;2023-04-03T09:38:01;2.37;;;2.20;;
69837;SDS011;57135;51.992;4.476;2023-04-03T09:40:37;2.25;;;2.12;;
69837;SDS011;57135;51.992;4.476;2023-04-03T09:45:47;2.00;;;1.89;;
69837;SDS011;57135;51.992;4.476;2023-04-03T09:50:53;1.66;;;1.58;;
69837;SDS011;57135;51.992;4.476;2023-04-03T09:53:36;2.02;;;1.89;;
69837;SDS011;57135;51.992;4.476;2023-04-03T09:58:40;1.68;;;1.58;;
69837;SDS011;57135;51.992;4.476;2023-04-03T10:01:56;2.05;;;1.97;;
69837;SDS011;57135;51.992;4.476;2023-04-03T10:06:44;6.80;;;5.75;;
69837;SDS011;57135;51.992;4.476;2023-04-03T10:09:21;23.88;;;15.32;;
69837;SDS011;57135;51.992;4.476;2023-04-03T10:12:07;9.67;;;5.95;;
69837;SDS011;57135;51.992;4.476;2023-04-03T10:14:38;4.13;;;2.88;;
69837;SDS011;57135;51.992;4.476;2023-04-03T10:20:03;2.57;;;2.13;;
69837;SDS011;57135;51.992;4.476;2023-04-03T10:28:05;2.02;;;1.85;;
69837;SDS011;57135;51.992;4.476;2023-04-03T10:36:19;2.18;;;2.01;;
69837;SDS011;57135;51.992;4.476;2023-04-03T10:38:53;1.84;;;1.75;;
69837;SDS011;57135;51.992;4.476;2023-04-03T10:41:28;1.65;;;1.57;;
69837;SDS011;57135;51.992;4.476;2023-04-03T10:44:15;1.75;;;1.64;;
69837;SDS011;57135;51.992;4.476;2023-04-03T10:49:49;1.70;;;1.58;;
69837;SDS011;57135;51.992;4.476;2023-04-03T10:57:38;1.45;;;1.38;;
69837;SDS011;57135;51.992;4.476;2023-04-03T11:00:06;1.50;;;1.43;;
69837;SDS011;57135;51.992;4.476;2023-04-03T11:02:45;1.47;;;1.39;;
69837;SDS011;57135;51.992;4.476;2023-04-03T11:08:08;1.59;;;1.52;;
69837;SDS011;57135;51.992;4.476;2023-04-03T11:10:50;1.39;;;1.34;;
69837;SDS011;57135;51.992;4.476;2023-04-03T11:13:24;1.57;;;1.50;;
69837;SDS011;57135;51.992;4.476;2023-04-03T11:15:58;1.50;;;1.44;;
69837;SDS011;57135;51.992;4.476;2023-04-03T11:18:43;1.67;;;1.60;;
69837;SDS011;57135;51.992;4.476;2023-04-03T11:21:33;1.65;;;1.54;;
69837;SDS011;57135;51.992;4.476;2023-04-03T11:24:05;1.51;;;1.41;;
69837;SDS011;57135;51.992;4.476;2023-04-03T11:26:41;1.58;;;1.50;;
69837;SDS011;57135;51.992;4.476;2023-04-03T11:29:09;1.46;;;1.41;;
69837;SDS011;57135;51.992;4.476;2023-04-03T11:37:51;1.22;;;1.18;;
69837;SDS011;57135;51.992;4.476;2023-04-03T11:40:05;1.54;;;1.47;;
69837;SDS011;57135;51.992;4.476;2023-04-03T11:42:37;1.31;;;1.26;;
69837;SDS011;57135;51.992;4.476;2023-04-03T12:05:53;0.92;;;0.87;;
69837;SDS011;57135;51.992;4.476;2023-04-03T12:13:41;1.04;;;0.98;;
69837;SDS011;57135;51.992;4.476;2023-04-03T12:29:29;1.19;;;1.13;;
69837;SDS011;57135;51.992;4.476;2023-04-03T12:40:51;1.06;;;1.02;;
69837;SDS011;57135;51.992;4.476;2023-04-03T12:43:43;1.25;;;1.20;;
69837;SDS011;57135;51.992;4.476;2023-04-03T12:46:21;1.25;;;1.19;;
69837;SDS011;57135;51.992;4.476;2023-04-03T12:48:52;4.73;;;3.96;;
69837;SDS011;57135;51.992;4.476;2023-04-03T12:51:37;8.28;;;5.76;;
69837;SDS011;57135;51.992;4.476;2023-04-03T12:54:19;2.48;;;1.78;;
69837;SDS011;57135;51.992;4.476;2023-04-03T12:57:08;2.30;;;1.77;;
69837;SDS011;57135;51.992;4.476;2023-04-03T12:59:37;2.01;;;1.66;;
69837;SDS011;57135;51.992;4.476;2023-04-03T13:02:07;1.83;;;1.59;;
69837;SDS011;57135;51.992;4.476;2023-04-03T13:04:51;1.73;;;1.58;;
69837;SDS011;57135;51.992;4.476;2023-04-03T13:07:23;1.62;;;1.50;;
69837;SDS011;57135;51.992;4.476;2023-04-03T13:10:01;1.70;;;1.60;;
69837;SDS011;57135;51.992;4.476;2023-04-03T13:12:29;1.74;;;1.66;;
69837;SDS011;57135;51.992;4.476;2023-04-03T13:14:59;1.89;;;1.80;;
69837;SDS011;57135;51.992;4.476;2023-04-03T13:17:29;1.71;;;1.66;;
69837;SDS011;57135;51.992;4.476;2023-04-03T13:19:57;1.67;;;1.63;;
69837;SDS011;57135;51.992;4.476;2023-04-03T13:22:41;1.90;;;1.85;;
69837;SDS011;57135;51.992;4.476;2023-04-03T13:25:13;1.83;;;1.78;;
69837;SDS011;57135;51.992;4.476;2023-04-03T13:27:42;1.70;;;1.67;;
69837;SDS011;57135;51.992;4.476;2023-04-03T13:32:58;1.84;;;1.78;;
69837;SDS011;57135;51.992;4.476;2023-04-03T13:37:56;1.88;;;1.83;;
69837;SDS011;57135;51.992;4.476;2023-04-03T13:40:23;2.00;;;1.95;;
69837;SDS011;57135;51.992;4.476;2023-04-03T13:43:00;1.90;;;1.85;;
69837;SDS011;57135;51.992;4.476;2023-04-03T13:45:31;2.09;;;2.03;;
69837;SDS011;57135;51.992;4.476;2023-04-03T13:48:09;1.93;;;1.88;;
69837;SDS011;57135;51.992;4.476;2023-04-03T13:53:24;1.98;;;1.93;;
69837;SDS011;57135;51.992;4.476;2023-04-03T13:58:28;1.97;;;1.90;;
69837;SDS011;57135;51.992;4.476;2023-04-03T14:06:08;1.86;;;1.80;;
69837;SDS011;57135;51.992;4.476;2023-04-03T14:08:37;1.99;;;1.93;;
69837;SDS011;57135;51.992;4.476;2023-04-03T14:11:03;2.14;;;2.09;;
69837;SDS011;57135;51.992;4.476;2023-04-03T14:13:29;2.09;;;2.05;;
69837;SDS011;57135;51.992;4.476;2023-04-03T14:15:55;1.93;;;1.88;;
69837;SDS011;57135;51.992;4.476;2023-04-03T14:18:21;1.85;;;1.81;;
69837;SDS011;57135;51.992;4.476;2023-04-03T14:20:47;2.28;;;2.22;;
69837;SDS011;57135;51.992;4.476;2023-04-03T14:23:14;1.99;;;1.93;;
69837;SDS011;57135;51.992;4.476;2023-04-03T14:25:41;2.16;;;2.10;;
69837;SDS011;57135;51.992;4.476;2023-04-03T14:28:20;1.96;;;1.92;;
69837;SDS011;57135;51.992;4.476;2023-04-03T14:30:50;2.02;;;1.95;;
69837;SDS011;57135;51.992;4.476;2023-04-03T14:33:17;1.98;;;1.93;;
69837;SDS011;57135;51.992;4.476;2023-04-03T14:35:45;2.04;;;2.00;;
69837;SDS011;57135;51.992;4.476;2023-04-03T14:38:21;2.29;;;2.18;;
69837;SDS011;57135;51.992;4.476;2023-04-03T14:40:49;2.10;;;2.02;;
69837;SDS011;57135;51.992;4.476;2023-04-03T14:43:15;2.07;;;1.99;;
69837;SDS011;57135;51.992;4.476;2023-04-03T14:45:41;2.03;;;1.95;;
69837;SDS011;57135;51.992;4.476;2023-04-03T14:48:09;2.16;;;2.09;;
69837;SDS011;57135;51.992;4.476;2023-04-03T14:50:45;2.11;;;2.04;;
69837;SDS011;57135;51.992;4.476;2023-04-03T14:53:11;2.19;;;2.15;;
69837;SDS011;57135;51.992;4.476;2023-04-03T14:55:37;1.93;;;1.89;;
69837;SDS011;57135;51.992;4.476;2023-04-03T14:58:03;1.97;;;1.91;;
69837;SDS011;57135;51.992;4.476;2023-04-03T15:00:28;2.22;;;2.18;;
69837;SDS011;57135;51.992;4.476;2023-04-03T15:02:54;2.01;;;1.99;;
69837;SDS011;57135;51.992;4.476;2023-04-03T15:05:20;2.01;;;1.98;;
69837;SDS011;57135;51.992;4.476;2023-04-03T15:07:55;2.05;;;2.03;;
69837;SDS011;57135;51.992;4.476;2023-04-03T15:10:23;2.09;;;2.07;;
69837;SDS011;57135;51.992;4.476;2023-04-03T15:12:51;2.16;;;2.14;;
69837;SDS011;57135;51.992;4.476;2023-04-03T15:15:17;2.14;;;2.11;;
69837;SDS011;57135;51.992;4.476;2023-04-03T15:17:45;2.32;;;2.26;;
69837;SDS011;57135;51.992;4.476;2023-04-03T15:20:14;2.12;;;2.06;;
69837;SDS011;57135;51.992;4.476;2023-04-03T15:22:45;2.08;;;2.02;;
69837;SDS011;57135;51.992;4.476;2023-04-03T15:25:11;2.17;;;2.10;;
69837;SDS011;57135;51.992;4.476;2023-04-03T15:27:37;2.42;;;2.34;;
69837;SDS011;57135;51.992;4.476;2023-04-03T15:30:04;2.23;;;2.18;;
69837;SDS011;57135;51.992;4.476;2023-04-03T15:32:31;2.07;;;2.02;;
69837;SDS011;57135;51.992;4.476;2023-04-03T15:34:57;2.16;;;2.11;;
69837;SDS011;57135;51.992;4.476;2023-04-03T15:37:22;2.34;;;2.29;;
69837;SDS011;57135;51.992;4.476;2023-04-03T15:39:48;2.24;;;2.20;;
69837;SDS011;57135;51.992;4.476;2023-04-03T15:42:13;2.21;;;2.16;;
69837;SDS011;57135;51.992;4.476;2023-04-03T15:44:39;2.33;;;2.26;;
69837;SDS011;57135;51.992;4.476;2023-04-03T15:47:04;2.22;;;2.16;;
69837;SDS011;57135;51.992;4.476;2023-04-03T15:49:30;2.31;;;2.25;;
69837;SDS011;57135;51.992;4.476;2023-04-03T15:51:58;2.35;;;2.29;;
69837;SDS011;57135;51.992;4.476;2023-04-03T15:54:23;2.48;;;2.38;;
69837;SDS011;57135;51.992;4.476;2023-04-03T15:56:50;2.25;;;2.19;;
69837;SDS011;57135;51.992;4.476;2023-04-03T15:59:16;2.09;;;2.07;;
69837;SDS011;57135;51.992;4.476;2023-04-03T16:01:41;2.37;;;2.35;;
69837;SDS011;57135;51.992;4.476;2023-04-03T16:04:08;2.39;;;2.37;;
69837;SDS011;57135;51.992;4.476;2023-04-03T16:06:35;2.28;;;2.26;;
69837;SDS011;57135;51.992;4.476;2023-04-03T16:09:01;3.72;;;3.67;;
69837;SDS011;57135;51.992;4.476;2023-04-03T16:11:26;2.93;;;2.91;;
69837;SDS011;57135;51.992;4.476;2023-04-03T16:13:52;2.67;;;2.65;;
69837;SDS011;57135;51.992;4.476;2023-04-03T16:16:18;2.73;;;2.69;;
69837;SDS011;57135;51.992;4.476;2023-04-03T16:18:44;2.27;;;2.23;;
69837;SDS011;57135;51.992;4.476;2023-04-03T16:21:12;2.25;;;2.22;;
69837;SDS011;57135;51.992;4.476;2023-04-03T16:23:40;2.45;;;2.41;;
69837;SDS011;57135;51.992;4.476;2023-04-03T16:26:06;2.45;;;2.42;;
69837;SDS011;57135;51.992;4.476;2023-04-03T16:28:32;2.39;;;2.34;;
69837;SDS011;57135;51.992;4.476;2023-04-03T16:30:57;2.47;;;2.40;;
69837;SDS011;57135;51.992;4.476;2023-04-03T16:33:23;2.47;;;2.37;;
69837;SDS011;57135;51.992;4.476;2023-04-03T16:35:49;2.33;;;2.23;;
69837;SDS011;57135;51.992;4.476;2023-04-03T16:38:15;2.28;;;2.19;;
69837;SDS011;57135;51.992;4.476;2023-04-03T16:40:41;2.37;;;2.30;;
69837;SDS011;57135;51.992;4.476;2023-04-03T16:43:06;2.56;;;2.49;;
69837;SDS011;57135;51.992;4.476;2023-04-03T16:45:32;2.39;;;2.34;;
69837;SDS011;57135;51.992;4.476;2023-04-03T16:47:58;2.64;;;2.56;;
69837;SDS011;57135;51.992;4.476;2023-04-03T16:50:23;2.58;;;2.47;;
69837;SDS011;57135;51.992;4.476;2023-04-03T16:52:49;2.64;;;2.53;;
69837;SDS011;57135;51.992;4.476;2023-04-03T16:55:14;2.57;;;2.50;;